Time;durP1;ratioP1;P1;durP2;ratioP2;P2;SDS_P1;SDS_P2;PMS_P1;PMS_P2;Temp;Humidity;BMP_temperature;BMP_pressure;BME280_temperature;BME280_humidity;BME280_pressure;Samples;Min_cycle;Max_cycle;Signal;HPM_P1;HPM_P2
2022/02/23 00:00:46;;;;;;;21.98;8.65;;;;;;;;;;4959081;28;20027;-80
2022/02/23 00:03:12;;;;;;;21.20;6.45;;;;;;;;;;4976757;28;20523;-79
2022/02/23 00:05:38;;;;;;;20.80;6.85;;;;;;;;;;4959719;28;20045;-79
2022/02/23 00:08:05;;;;;;;48.78;14.95;;;;;;;;;;4959118;28;20031;-79
2022/02/23 00:10:31;;;;;;;32.13;12.15;;;;;;;;;;4959653;28;20026;-82
2022/02/23 00:12:57;;;;;;;20.63;6.40;;;;;;;;;;4959358;28;20066;-79
2022/02/23 00:15:23;;;;;;;33.03;13.40;;;;;;;;;;4959455;28;20050;-78
2022/02/23 00:17:49;;;;;;;29.30;10.18;;;;;;;;;;4959428;28;20042;-79
2022/02/23 00:20:16;;;;;;;12.38;2.78;;;;;;;;;;4959173;28;20034;-79
2022/02/23 00:22:42;;;;;;;6.88;2.10;;;;;;;;;;4959751;28;20074;-78
2022/02/23 00:25:09;;;;;;;7.97;1.73;;;;;;;;;;4977162;28;20495;-78
2022/02/23 00:27:36;;;;;;;6.47;1.77;;;;;;;;;;4961736;28;20399;-78
2022/02/23 00:30:03;;;;;;;10.32;1.67;;;;;;;;;;4960765;28;20109;-79
2022/02/23 00:32:30;;;;;;;6.20;1.70;;;;;;;;;;4976150;28;20035;-79
2022/02/23 00:34:57;;;;;;;5.25;1.42;;;;;;;;;;4959305;28;20080;-79
2022/02/23 00:37:23;;;;;;;8.23;1.80;;;;;;;;;;4958862;28;20062;-76
2022/02/23 00:39:49;;;;;;;4.43;1.40;;;;;;;;;;4958566;28;20027;-79
2022/02/23 00:42:15;;;;;;;5.68;1.60;;;;;;;;;;4958866;28;20031;-78
2022/02/23 00:44:42;;;;;;;5.82;1.60;;;;;;;;;;4958936;28;20027;-77
2022/02/23 00:47:10;;;;;;;4.45;1.40;;;;;;;;;;4959041;28;20054;-78
2022/02/23 00:49:36;;;;;;;11.85;2.05;;;;;;;;;;4958748;28;20118;-79
2022/02/23 00:52:05;;;;;;;5.32;1.50;;;;;;;;;;4958726;28;20045;-78
2022/02/23 00:54:32;;;;;;;7.13;1.52;;;;;;;;;;4958730;28;20027;-78
2022/02/23 00:56:58;;;;;;;4.20;1.33;;;;;;;;;;4976107;28;20019;-78
2022/02/23 00:59:27;;;;;;;12.18;1.88;;;;;;;;;;4958450;28;20113;-76
2022/02/23 01:01:53;;;;;;;6.35;1.52;;;;;;;;;;4980952;28;20058;-79
2022/02/23 01:04:19;;;;;;;6.22;1.80;;;;;;;;;;4995519;28;20030;-78
2022/02/23 01:06:46;;;;;;;8.02;1.65;;;;;;;;;;5010527;28;20045;-80
2022/02/23 01:09:12;;;;;;;6.13;1.50;;;;;;;;;;5010833;28;20096;-80
2022/02/23 01:11:40;;;;;;;7.03;1.58;;;;;;;;;;5010794;28;20034;-80
2022/02/23 01:14:06;;;;;;;8.65;1.30;;;;;;;;;;5010502;28;20117;-80
2022/02/23 01:16:32;;;;;;;4.97;1.50;;;;;;;;;;5010207;28;20026;-80
2022/02/23 01:18:59;;;;;;;6.65;1.58;;;;;;;;;;4995099;28;20027;-79
2022/02/23 01:21:26;;;;;;;5.38;1.60;;;;;;;;;;4995302;28;20102;-79
2022/02/23 01:23:55;;;;;;;6.45;1.48;;;;;;;;;;5010216;28;20049;-79
2022/02/23 01:26:22;;;;;;;6.30;1.50;;;;;;;;;;4994920;28;20030;-79
2022/02/23 01:28:48;;;;;;;6.15;1.60;;;;;;;;;;5009837;28;20073;-80
2022/02/23 01:31:14;;;;;;;5.47;1.58;;;;;;;;;;5010037;28;20031;-80
2022/02/23 01:33:40;;;;;;;9.73;1.73;;;;;;;;;;5010070;28;20030;-79
2022/02/23 01:36:07;;;;;;;4.88;1.30;;;;;;;;;;5009550;28;20030;-80
2022/02/23 01:38:33;;;;;;;11.63;2.13;;;;;;;;;;5010002;28;20038;-80
2022/02/23 01:41:01;;;;;;;7.75;1.60;;;;;;;;;;5009868;28;20033;-79
2022/02/23 01:43:27;;;;;;;7.20;1.73;;;;;;;;;;5009829;28;20018;-79
2022/02/23 01:45:54;;;;;;;6.38;1.63;;;;;;;;;;5009780;28;20038;-79
2022/02/23 01:48:20;;;;;;;6.43;1.73;;;;;;;;;;5009801;28;20058;-80
2022/02/23 01:50:46;;;;;;;7.15;1.95;;;;;;;;;;5009476;28;20033;-78
2022/02/23 01:53:14;;;;;;;5.93;1.52;;;;;;;;;;4994630;28;20085;-79
2022/02/23 01:55:40;;;;;;;9.07;2.17;;;;;;;;;;5009592;28;20428;-80
2022/02/23 01:58:06;;;;;;;4.40;1.60;;;;;;;;;;5009813;28;20091;-80
2022/02/23 02:00:33;;;;;;;5.32;1.55;;;;;;;;;;5009796;28;20026;-77
2022/02/23 02:02:59;;;;;;;6.60;1.70;;;;;;;;;;4995243;28;20470;-80
2022/02/23 02:05:25;;;;;;;6.80;1.52;;;;;;;;;;4975745;28;20563;-80
2022/02/23 02:07:51;;;;;;;4.28;1.30;;;;;;;;;;4957579;28;20031;-80
2022/02/23 02:10:17;;;;;;;6.32;2.22;;;;;;;;;;4957639;28;20427;-80
2022/02/23 02:12:44;;;;;;;7.05;1.83;;;;;;;;;;4974670;28;20042;-80
2022/02/23 02:15:10;;;;;;;4.80;1.63;;;;;;;;;;4957147;28;20037;-80
2022/02/23 02:17:36;;;;;;;7.65;2.20;;;;;;;;;;4957371;28;20034;-79
2022/02/23 02:20:06;;;;;;;6.68;1.88;;;;;;;;;;4957501;28;20479;-79
2022/02/23 02:22:32;;;;;;;6.25;1.77;;;;;;;;;;4957233;28;20503;-79
2022/02/23 02:25:01;;;;;;;6.88;2.00;;;;;;;;;;4974461;28;20030;-80
2022/02/23 02:27:29;;;;;;;7.55;2.17;;;;;;;;;;4956802;28;20066;-80
2022/02/23 02:29:55;;;;;;;6.07;1.95;;;;;;;;;;4957413;28;20031;-84
2022/02/23 02:32:21;;;;;;;8.50;1.83;;;;;;;;;;4956990;28;20122;-79
2022/02/23 02:34:47;;;;;;;6.80;2.03;;;;;;;;;;4957144;28;20062;-80
2022/02/23 02:37:14;;;;;;;7.25;1.92;;;;;;;;;;4974760;28;20086;-79
2022/02/23 02:39:40;;;;;;;8.07;1.95;;;;;;;;;;4974526;28;20435;-79
2022/02/23 02:42:07;;;;;;;5.68;1.90;;;;;;;;;;4974351;28;20049;-79
2022/02/23 02:44:33;;;;;;;6.20;2.08;;;;;;;;;;4957170;28;20034;-79
2022/02/23 02:47:00;;;;;;;5.55;1.80;;;;;;;;;;4974427;28;20472;-77
2022/02/23 02:49:26;;;;;;;6.15;1.90;;;;;;;;;;4957381;28;20023;-78
2022/02/23 02:51:52;;;;;;;3.67;1.38;;;;;;;;;;4974523;28;20041;-78
2022/02/23 02:54:19;;;;;;;7.35;1.80;;;;;;;;;;4957062;28;20027;-80
2022/02/23 02:56:45;;;;;;;4.00;1.63;;;;;;;;;;4956757;28;20034;-79
2022/02/23 02:59:11;;;;;;;4.93;1.80;;;;;;;;;;4957076;28;20027;-79
2022/02/23 03:01:37;;;;;;;5.93;2.00;;;;;;;;;;4974312;28;20097;-79
2022/02/23 03:04:04;;;;;;;5.65;1.85;;;;;;;;;;4957075;28;20081;-77
2022/02/23 03:06:33;;;;;;;8.25;1.92;;;;;;;;;;4957194;28;20387;-77
2022/02/23 03:08:59;;;;;;;7.43;1.85;;;;;;;;;;4957075;28;20035;-78
2022/02/23 03:11:26;;;;;;;11.57;2.58;;;;;;;;;;4957066;28;20035;-79
2022/02/23 03:13:53;;;;;;;9.52;3.90;;;;;;;;;;4957435;28;20035;-79
2022/02/23 03:16:19;;;;;;;9.02;4.65;;;;;;;;;;4977819;28;20030;-79
2022/02/23 03:18:45;;;;;;;11.07;2.60;;;;;;;;;;4978220;28;20132;-79
2022/02/23 03:21:12;;;;;;;4.75;2.17;;;;;;;;;;4960987;28;20022;-81
2022/02/23 03:23:38;;;;;;;3.40;1.70;;;;;;;;;;4978165;28;20054;-79
2022/02/23 03:26:05;;;;;;;8.43;2.00;;;;;;;;;;4960568;28;20031;-79
2022/02/23 03:28:31;;;;;;;6.10;1.60;;;;;;;;;;4977980;28;20042;-80
2022/02/23 03:30:58;;;;;;;8.63;1.58;;;;;;;;;;4960503;28;20029;-80
2022/02/23 03:33:24;;;;;;;6.35;1.35;;;;;;;;;;4977736;28;20062;-79
2022/02/23 03:35:51;;;;;;;4.75;1.30;;;;;;;;;;4978002;28;20467;-79
2022/02/23 03:38:17;;;;;;;3.95;1.40;;;;;;;;;;4960655;28;20037;-79
2022/02/23 03:40:43;;;;;;;3.65;1.13;;;;;;;;;;4978053;28;20031;-79
2022/02/23 03:43:10;;;;;;;3.38;1.27;;;;;;;;;;4961100;28;20031;-80
2022/02/23 03:45:36;;;;;;;3.72;1.35;;;;;;;;;;4960341;28;20031;-79
2022/02/23 03:48:03;;;;;;;5.90;1.38;;;;;;;;;;4960154;28;20022;-78
2022/02/23 03:50:29;;;;;;;2.65;1.10;;;;;;;;;;4960370;28;20027;-78
2022/02/23 03:52:55;;;;;;;4.03;1.25;;;;;;;;;;4959980;28;20045;-79
2022/02/23 03:55:21;;;;;;;2.90;1.08;;;;;;;;;;4977205;28;20030;-79
2022/02/23 03:57:47;;;;;;;4.75;1.27;;;;;;;;;;4960050;28;20118;-79
2022/02/23 04:00:15;;;;;;;5.80;1.50;;;;;;;;;;4960009;28;20386;-79
2022/02/23 04:02:41;;;;;;;5.57;1.70;;;;;;;;;;4959519;28;20052;-80
2022/02/23 04:05:08;;;;;;;4.30;1.35;;;;;;;;;;4977586;28;20031;-80
2022/02/23 04:07:37;;;;;;;6.70;1.75;;;;;;;;;;4977425;28;20031;-80
2022/02/23 04:10:04;;;;;;;6.30;1.40;;;;;;;;;;4977193;28;20027;-79
2022/02/23 04:12:31;;;;;;;3.83;1.27;;;;;;;;;;4977135;28;20038;-79
2022/02/23 04:14:57;;;;;;;4.90;1.52;;;;;;;;;;4959660;28;20030;-79
2022/02/23 04:17:23;;;;;;;3.60;1.40;;;;;;;;;;4959488;28;20465;-78
2022/02/23 04:19:49;;;;;;;6.18;1.17;;;;;;;;;;4959383;28;20030;-78
2022/02/23 04:22:15;;;;;;;4.75;1.40;;;;;;;;;;4959521;28;20369;-78
2022/02/23 04:24:41;;;;;;;5.28;1.67;;;;;;;;;;4959060;28;20059;-78
2022/02/23 04:27:07;;;;;;;6.68;1.50;;;;;;;;;;4959585;28;20027;-79
2022/02/23 04:29:34;;;;;;;5.20;1.45;;;;;;;;;;4959361;28;20027;-80
2022/02/23 04:32:00;;;;;;;5.65;1.30;;;;;;;;;;4976435;28;20034;-78
2022/02/23 04:34:26;;;;;;;3.50;1.23;;;;;;;;;;4976538;28;20475;-79
2022/02/23 04:36:53;;;;;;;8.20;1.90;;;;;;;;;;4976645;28;20019;-79
2022/02/23 04:39:19;;;;;;;7.03;1.52;;;;;;;;;;4959182;28;20039;-79
2022/02/23 04:41:46;;;;;;;4.68;1.73;;;;;;;;;;4976576;28;20027;-79
2022/02/23 04:44:12;;;;;;;2.95;1.40;;;;;;;;;;4976310;28;20042;-78
2022/02/23 04:46:38;;;;;;;4.55;1.40;;;;;;;;;;4959197;28;20027;-79
2022/02/23 04:49:04;;;;;;;5.32;1.60;;;;;;;;;;4976520;28;20039;-79
2022/02/23 04:51:31;;;;;;;7.32;1.77;;;;;;;;;;4958881;28;20023;-80
2022/02/23 04:53:57;;;;;;;5.45;1.50;;;;;;;;;;4976238;28;20031;-80
2022/02/23 04:56:24;;;;;;;8.10;2.25;;;;;;;;;;4958820;28;20054;-80
2022/02/23 04:58:50;;;;;;;6.32;2.88;;;;;;;;;;4976474;28;20364;-79
2022/02/23 05:01:16;;;;;;;8.52;3.42;;;;;;;;;;4958818;28;20018;-79
2022/02/23 05:03:49;;;;;;;7.40;2.85;;;;;;;;;;4958439;28;20034;-79
2022/02/23 05:06:15;;;;;;;8.45;3.15;;;;;;;;;;4959097;28;20412;-78
2022/02/23 05:08:41;;;;;;;7.47;2.28;;;;;;;;;;4958816;28;20034;-78
2022/02/23 05:11:07;;;;;;;5.68;1.92;;;;;;;;;;4958665;28;20027;-80
2022/02/23 05:13:34;;;;;;;6.55;1.65;;;;;;;;;;4958733;28;20043;-80
2022/02/23 05:16:02;;;;;;;3.88;1.25;;;;;;;;;;4975777;28;20078;-79
2022/02/23 05:18:29;;;;;;;5.45;1.75;;;;;;;;;;4958237;28;20121;-79
2022/02/23 05:20:55;;;;;;;4.50;1.85;;;;;;;;;;4958629;28;20039;-81
2022/02/23 05:23:22;;;;;;;4.85;1.90;;;;;;;;;;4975791;28;20054;-80
2022/02/23 05:25:48;;;;;;;6.38;1.83;;;;;;;;;;4958161;28;20208;-79
2022/02/23 05:28:14;;;;;;;5.13;1.58;;;;;;;;;;4975518;28;20027;-79
2022/02/23 05:30:41;;;;;;;5.47;1.25;;;;;;;;;;4975553;28;20106;-80
2022/02/23 05:33:07;;;;;;;4.45;1.48;;;;;;;;;;4975204;28;20082;-78
2022/02/23 05:35:34;;;;;;;4.30;1.40;;;;;;;;;;4975475;28;20015;-78
2022/02/23 05:38:00;;;;;;;5.38;1.42;;;;;;;;;;4957435;28;20030;-81
2022/02/23 05:40:26;;;;;;;5.40;1.52;;;;;;;;;;4958011;28;20058;-79
2022/02/23 05:42:53;;;;;;;3.25;1.25;;;;;;;;;;4957862;28;20027;-79
2022/02/23 05:45:20;;;;;;;3.78;1.38;;;;;;;;;;4957981;28;20027;-79
2022/02/23 05:47:46;;;;;;;3.10;1.13;;;;;;;;;;4975230;28;20547;-79
2022/02/23 05:50:12;;;;;;;2.83;1.10;;;;;;;;;;4957739;28;20460;-80
2022/02/23 05:52:38;;;;;;;5.32;1.20;;;;;;;;;;4975207;28;20105;-79
2022/02/23 05:55:04;;;;;;;2.83;1.23;;;;;;;;;;4956990;28;20074;-78
2022/02/23 05:57:31;;;;;;;5.40;1.23;;;;;;;;;;4956871;28;20121;-79
2022/02/23 05:59:57;;;;;;;4.30;1.20;;;;;;;;;;4957711;28;20027;-79
2022/02/23 06:02:23;;;;;;;5.57;1.00;;;;;;;;;;4957590;28;20047;-79
2022/02/23 06:04:50;;;;;;;2.63;1.30;;;;;;;;;;4974655;28;20027;-79
2022/02/23 06:07:16;;;;;;;2.80;1.30;;;;;;;;;;4957692;28;20065;-80
2022/02/23 06:09:43;;;;;;;4.13;1.10;;;;;;;;;;4957472;28;20027;-79
2022/02/23 06:12:09;;;;;;;3.38;1.00;;;;;;;;;;4956965;28;20552;-79
2022/02/23 06:14:35;;;;;;;2.95;1.20;;;;;;;;;;4980116;28;20022;-77
2022/02/23 06:17:01;;;;;;;2.95;1.10;;;;;;;;;;4975289;28;20456;-78
2022/02/23 06:19:27;;;;;;;4.00;1.05;;;;;;;;;;4989433;28;20023;-78
2022/02/23 06:21:54;;;;;;;2.53;0.95;;;;;;;;;;4992502;28;20494;-77
2022/02/23 06:24:20;;;;;;;6.78;1.20;;;;;;;;;;4976577;28;20149;-78
2022/02/23 06:26:46;;;;;;;5.28;1.35;;;;;;;;;;4976401;28;20022;-78
2022/02/23 06:29:12;;;;;;;5.28;1.45;;;;;;;;;;4976303;28;20029;-77
2022/02/23 06:31:39;;;;;;;2.83;1.20;;;;;;;;;;4993721;28;20035;-79
2022/02/23 06:34:05;;;;;;;2.80;1.02;;;;;;;;;;4976350;28;20116;-77
2022/02/23 06:36:31;;;;;;;4.20;1.10;;;;;;;;;;4993921;28;20026;-78
2022/02/23 06:38:57;;;;;;;4.07;1.20;;;;;;;;;;4976320;28;20033;-77
2022/02/23 06:41:26;;;;;;;4.20;1.40;;;;;;;;;;4968587;28;20023;-77
2022/02/23 06:43:53;;;;;;;3.65;1.40;;;;;;;;;;4956483;28;20539;-77
2022/02/23 06:46:19;;;;;;;4.13;1.00;;;;;;;;;;4956820;28;20031;-84
2022/02/23 06:48:45;;;;;;;5.13;0.70;;;;;;;;;;4959536;28;20443;-83
2022/02/23 06:51:18;;;;;;;1.75;0.68;;;;;;;;;;4961586;28;20030;-82
2022/02/23 06:53:44;;;;;;;2.40;0.77;;;;;;;;;;4961572;28;20107;-80
2022/02/23 06:56:10;;;;;;;1.40;0.50;;;;;;;;;;4962223;28;20022;-84
2022/02/23 06:58:47;;;;;;;3.97;0.85;;;;;;;;;;4983170;28;20109;-77
2022/02/23 07:01:16;;;;;;;4.60;0.77;;;;;;;;;;4961406;28;20042;-77
2022/02/23 07:03:42;;;;;;;1.50;0.60;;;;;;;;;;4980697;28;20042;-77
2022/02/23 07:06:09;;;;;;;3.20;0.90;;;;;;;;;;4997585;28;20027;-78
2022/02/23 07:08:35;;;;;;;2.55;0.60;;;;;;;;;;4980326;28;20041;-82
2022/02/23 07:11:01;;;;;;;2.13;0.80;;;;;;;;;;4997687;28;20030;-80
2022/02/23 07:13:27;;;;;;;2.83;1.15;;;;;;;;;;4979966;28;20065;-85
2022/02/23 07:15:54;;;;;;;3.50;0.85;;;;;;;;;;4980485;28;20486;-82
2022/02/23 07:18:22;;;;;;;3.95;0.50;;;;;;;;;;4980652;28;20030;-84
2022/02/23 07:20:49;;;;;;;1.73;0.73;;;;;;;;;;5003523;28;20037;-79
2022/02/23 07:23:30;;;;;;;5.78;0.60;;;;;;;;;;4962632;28;20031;-79
2022/02/23 07:25:57;;;;;;;4.47;0.80;;;;;;;;;;4961347;28;20074;-84
2022/02/23 07:28:29;;;;;;;1.38;0.40;;;;;;;;;;4978659;28;20023;-88
2022/02/23 07:31:07;;;;;;;2.22;0.50;;;;;;;;;;4978229;28;20031;-78
2022/02/23 07:33:35;;;;;;;1.90;0.65;;;;;;;;;;4976572;28;20038;-77
2022/02/23 07:36:04;;;;;;;1.27;0.28;;;;;;;;;;4980996;28;20033;-85
2022/02/23 07:38:30;;;;;;;3.75;0.50;;;;;;;;;;4995568;28;20031;-82
2022/02/23 07:43:53;;;;;;;2.42;0.60;;;;;;;;;;4951048;28;20034;-78
2022/02/23 07:46:20;;;;;;;1.88;0.28;;;;;;;;;;4922443;29;20027;-78
2022/02/23 07:48:47;;;;;;;1.52;0.40;;;;;;;;;;4937607;29;20035;-86
2022/02/23 07:51:20;;;;;;;3.00;0.50;;;;;;;;;;4975349;28;20054;-79
2022/02/23 07:53:48;;;;;;;5.35;0.40;;;;;;;;;;4979590;28;20105;-78
2022/02/23 07:56:14;;;;;;;1.42;0.45;;;;;;;;;;4979213;28;20054;-84
2022/02/23 07:58:40;;;;;;;2.55;0.30;;;;;;;;;;4979406;28;20534;-79
2022/02/23 08:01:07;;;;;;;2.10;0.35;;;;;;;;;;4978600;28;20076;-79
2022/02/23 08:03:35;;;;;;;10.35;0.73;;;;;;;;;;4997936;28;20037;-82
2022/02/23 08:06:01;;;;;;;3.00;0.68;;;;;;;;;;5016147;28;20390;-80
2022/02/23 08:08:28;;;;;;;3.00;1.08;;;;;;;;;;4996940;28;20030;-79
2022/02/23 08:10:54;;;;;;;4.63;0.60;;;;;;;;;;5000604;28;20037;-81
2022/02/23 08:13:20;;;;;;;1.55;0.65;;;;;;;;;;5011635;28;20045;-82
2022/02/23 08:21:17;;;;;;;3.15;0.45;;;;;;;;;;5016494;28;20045;-82
2022/02/23 08:23:45;;;;;;;1.67;0.43;;;;;;;;;;4998457;28;20025;-80
2022/02/23 08:26:12;;;;;;;0.50;0.22;;;;;;;;;;4998484;28;20073;-80
2022/02/23 08:28:38;;;;;;;2.42;0.30;;;;;;;;;;4997505;28;20026;-81
2022/02/23 08:31:05;;;;;;;0.88;0.40;;;;;;;;;;5016095;28;20390;-81
2022/02/23 08:33:31;;;;;;;1.20;0.60;;;;;;;;;;4998710;28;20073;-81
2022/02/23 08:35:58;;;;;;;1.40;0.40;;;;;;;;;;5017389;28;20030;-82
2022/02/23 08:38:26;;;;;;;1.27;0.47;;;;;;;;;;5006735;28;20029;-83
2022/02/23 08:40:52;;;;;;;2.78;0.90;;;;;;;;;;4997717;28;20466;-81
2022/02/23 08:43:18;;;;;;;1.25;0.43;;;;;;;;;;4998007;28;20084;-81
2022/02/23 08:45:45;;;;;;;1.45;0.40;;;;;;;;;;4997750;28;20466;-80
2022/02/23 08:48:11;;;;;;;1.92;0.40;;;;;;;;;;4997819;28;20478;-83
2022/02/23 08:50:37;;;;;;;4.85;0.40;;;;;;;;;;4997223;28;20367;-77
2022/02/23 08:53:04;;;;;;;0.95;0.20;;;;;;;;;;5015070;28;20394;-79
2022/02/23 08:55:30;;;;;;;1.55;0.57;;;;;;;;;;5015090;28;20021;-79
2022/02/23 08:57:58;;;;;;;2.47;0.30;;;;;;;;;;5015001;28;20041;-79
2022/02/23 09:00:25;;;;;;;3.40;0.70;;;;;;;;;;4997111;28;20032;-78
2022/02/23 09:02:51;;;;;;;3.85;0.68;;;;;;;;;;4997366;28;20049;-83
2022/02/23 09:05:17;;;;;;;1.83;0.25;;;;;;;;;;4997500;28;20064;-83
2022/02/23 09:07:43;;;;;;;5.85;0.60;;;;;;;;;;5030119;28;20033;-82
2022/02/23 09:10:09;;;;;;;1.00;0.43;;;;;;;;;;5030373;28;20018;-82
2022/02/23 09:12:35;;;;;;;2.83;0.85;;;;;;;;;;5029120;28;20045;-84
2022/02/23 09:15:02;;;;;;;4.22;0.88;;;;;;;;;;5030502;28;20033;-85
2022/02/23 09:17:28;;;;;;;3.25;0.60;;;;;;;;;;5015117;28;20470;-84
2022/02/23 09:19:55;;;;;;;2.92;0.77;;;;;;;;;;5030352;28;20029;-85
2022/02/23 09:22:22;;;;;;;1.02;0.30;;;;;;;;;;5030515;28;20076;-83
2022/02/23 09:24:48;;;;;;;4.18;0.57;;;;;;;;;;5014918;28;20057;-84
2022/02/23 09:27:14;;;;;;;7.63;0.63;;;;;;;;;;5030208;28;20025;-84
2022/02/23 09:29:40;;;;;;;0.82;0.22;;;;;;;;;;5029937;28;20036;-81
2022/02/23 09:32:06;;;;;;;1.40;0.47;;;;;;;;;;5021875;28;20030;-77
2022/02/23 09:34:33;;;;;;;1.67;0.43;;;;;;;;;;4994587;28;20466;-79
2022/02/23 09:36:59;;;;;;;2.70;0.40;;;;;;;;;;4976998;28;20030;-78
2022/02/23 09:39:25;;;;;;;1.08;0.40;;;;;;;;;;4977132;28;20375;-78
2022/02/23 09:41:53;;;;;;;3.22;0.40;;;;;;;;;;4994907;28;20105;-79
2022/02/23 09:44:19;;;;;;;0.50;0.20;;;;;;;;;;4977464;28;20030;-79
2022/02/23 09:46:46;;;;;;;4.20;0.57;;;;;;;;;;4994697;28;20493;-80
2022/02/23 09:49:13;;;;;;;3.03;0.43;;;;;;;;;;4994722;28;20109;-79
2022/02/23 09:51:39;;;;;;;2.25;0.50;;;;;;;;;;4994186;28;20026;-79
2022/02/23 09:54:50;;;;;;;1.00;0.32;;;;;;;;;;4998694;28;20034;-79
2022/02/23 09:57:17;;;;;;;0.55;0.15;;;;;;;;;;4943623;28;20057;-77
2022/02/23 09:59:43;;;;;;;2.20;0.30;;;;;;;;;;4990389;28;20497;-79
2022/02/23 10:02:13;;;;;;;1.60;0.30;;;;;;;;;;5010169;28;20042;-77
2022/02/23 10:04:40;;;;;;;1.45;0.30;;;;;;;;;;4977963;28;20027;-78
2022/02/23 10:07:07;;;;;;;4.50;0.50;;;;;;;;;;4991105;28;20026;-80
2022/02/23 10:09:41;;;;;;;1.67;0.35;;;;;;;;;;4993425;28;20014;-84
2022/02/23 10:12:07;;;;;;;7.35;0.43;;;;;;;;;;4977396;28;20034;-83
2022/02/23 10:14:33;;;;;;;3.45;1.02;;;;;;;;;;4999490;28;20050;-84
2022/02/23 10:16:59;;;;;;;2.10;0.57;;;;;;;;;;4994585;28;20093;-80
2022/02/23 10:19:26;;;;;;;1.00;0.40;;;;;;;;;;4994913;28;20113;-79
2022/02/23 10:21:55;;;;;;;3.47;0.65;;;;;;;;;;4990153;28;20073;-82
2022/02/23 10:24:26;;;;;;;2.63;0.35;;;;;;;;;;4973089;28;20023;-77
2022/02/23 10:26:54;;;;;;;1.52;0.43;;;;;;;;;;4975122;28;20031;-84
2022/02/23 10:29:27;;;;;;;3.53;0.52;;;;;;;;;;4973799;28;20379;-85
2022/02/23 10:31:53;;;;;;;2.30;0.40;;;;;;;;;;4973961;28;20042;-81
2022/02/23 10:34:21;;;;;;;1.15;0.50;;;;;;;;;;4974204;28;20055;-81
2022/02/23 10:36:57;;;;;;;2.97;0.85;;;;;;;;;;4957464;28;20026;-81
2022/02/23 10:39:23;;;;;;;1.17;0.25;;;;;;;;;;4973679;28;20039;-82
2022/02/23 10:42:03;;;;;;;2.40;0.50;;;;;;;;;;4974720;28;20022;-77
2022/02/23 10:44:29;;;;;;;1.75;0.52;;;;;;;;;;4974991;28;20031;-76
2022/02/23 10:46:56;;;;;;;0.85;0.30;;;;;;;;;;4973513;28;20030;-82
2022/02/23 10:49:22;;;;;;;3.05;0.60;;;;;;;;;;4975185;28;20034;-77
2022/02/23 10:51:48;;;;;;;2.83;0.30;;;;;;;;;;4974160;28;20023;-79
2022/02/23 10:54:15;;;;;;;0.85;0.30;;;;;;;;;;4956540;28;20078;-79
2022/02/23 10:56:42;;;;;;;1.85;0.55;;;;;;;;;;4973725;28;20026;-79
2022/02/23 10:59:10;;;;;;;5.38;0.88;;;;;;;;;;4976291;28;20026;-76
2022/02/23 11:01:38;;;;;;;9.60;0.63;;;;;;;;;;4976561;28;20663;-76
2022/02/23 11:04:06;;;;;;;2.90;0.43;;;;;;;;;;4993889;28;20035;-78
2022/02/23 11:06:33;;;;;;;1.73;0.45;;;;;;;;;;4993907;28;20042;-86
2022/02/23 11:09:00;;;;;;;1.92;0.63;;;;;;;;;;4993689;28;20106;-84
2022/02/23 11:11:28;;;;;;;4.00;0.35;;;;;;;;;;4976134;28;20474;-79
2022/02/23 11:13:58;;;;;;;2.05;0.38;;;;;;;;;;4976262;28;20042;-80
2022/02/23 11:16:25;;;;;;;2.20;0.55;;;;;;;;;;4993318;28;20046;-81
2022/02/23 11:18:52;;;;;;;3.65;0.68;;;;;;;;;;4976546;28;20022;-79
2022/02/23 11:21:19;;;;;;;2.90;0.60;;;;;;;;;;4976255;28;20027;-83
2022/02/23 11:23:52;;;;;;;3.42;0.52;;;;;;;;;;4993876;28;20023;-81
2022/02/23 11:26:19;;;;;;;5.13;0.50;;;;;;;;;;4976230;28;20481;-78
2022/02/23 11:29:05;;;;;;;4.18;0.80;;;;;;;;;;4993574;28;20023;-78
2022/02/23 11:31:35;;;;;;;4.68;0.50;;;;;;;;;;4975916;28;20188;-78
2022/02/23 11:34:11;;;;;;;4.00;0.35;;;;;;;;;;4977397;28;20044;-80
2022/02/23 11:36:42;;;;;;;1.75;0.50;;;;;;;;;;4980700;28;20024;-80
2022/02/23 11:39:09;;;;;;;4.80;0.57;;;;;;;;;;4979299;28;20043;-77
2022/02/23 11:41:37;;;;;;;3.42;0.70;;;;;;;;;;4978149;28;20065;-80
2022/02/23 11:44:11;;;;;;;4.05;0.60;;;;;;;;;;4977558;28;20533;-86
2022/02/23 11:46:49;;;;;;;2.78;0.75;;;;;;;;;;4986314;28;20102;-81
2022/02/23 11:49:16;;;;;;;1.92;0.47;;;;;;;;;;4997162;28;20093;-82
2022/02/23 11:51:43;;;;;;;4.15;0.70;;;;;;;;;;4980870;28;20126;-82
2022/02/23 11:54:10;;;;;;;2.28;0.30;;;;;;;;;;4983707;28;20023;-77
2022/02/23 11:56:38;;;;;;;2.85;0.32;;;;;;;;;;4980003;28;20033;-87
2022/02/23 11:59:05;;;;;;;5.40;0.57;;;;;;;;;;4986519;28;20022;-78
2022/02/23 12:01:45;;;;;;;4.32;0.50;;;;;;;;;;4979090;28;20026;-78
2022/02/23 12:04:17;;;;;;;2.50;0.60;;;;;;;;;;4989531;28;20074;-80
2022/02/23 12:07:02;;;;;;;1.73;0.38;;;;;;;;;;4977739;28;20027;-81
2022/02/23 12:09:49;;;;;;;8.93;0.88;;;;;;;;;;4977089;28;20023;-85
2022/02/23 12:12:31;;;;;;;3.75;0.93;;;;;;;;;;4977335;28;20093;-79
2022/02/23 12:14:59;;;;;;;2.63;0.30;;;;;;;;;;4959977;28;20027;-78
2022/02/23 12:17:43;;;;;;;4.45;0.43;;;;;;;;;;4959943;28;20483;-77
2022/02/23 12:20:28;;;;;;;3.30;0.50;;;;;;;;;;4959558;28;20081;-83
2022/02/23 12:23:06;;;;;;;0.98;0.40;;;;;;;;;;4959971;28;20058;-82
2022/02/23 12:25:51;;;;;;;4.60;0.73;;;;;;;;;;4976892;28;20487;-82
2022/02/23 12:28:24;;;;;;;3.17;0.68;;;;;;;;;;4956753;28;20066;-78
2022/02/23 12:30:59;;;;;;;2.58;0.63;;;;;;;;;;4987791;28;20438;-82
2022/02/23 12:33:26;;;;;;;2.83;0.50;;;;;;;;;;4975502;28;20039;-79
2022/02/23 12:35:53;;;;;;;2.75;0.65;;;;;;;;;;4959281;28;20074;-78
2022/02/23 12:38:25;;;;;;;4.05;0.70;;;;;;;;;;4976661;28;20027;-77
2022/02/23 12:40:55;;;;;;;1.70;0.52;;;;;;;;;;4976661;28;20031;-78
2022/02/23 12:43:21;;;;;;;5.20;1.10;;;;;;;;;;4976273;28;20027;-77
2022/02/23 12:45:51;;;;;;;5.40;0.82;;;;;;;;;;4958770;28;20026;-88
2022/02/23 12:48:17;;;;;;;6.57;1.05;;;;;;;;;;4976127;28;20054;-81
2022/02/23 12:50:43;;;;;;;4.47;1.27;;;;;;;;;;4958764;28;20035;-77
2022/02/23 12:53:10;;;;;;;2.25;0.88;;;;;;;;;;4958476;28;20547;-78
2022/02/23 12:55:36;;;;;;;6.50;1.02;;;;;;;;;;4976136;28;20030;-77
2022/02/23 12:58:05;;;;;;;2.95;0.80;;;;;;;;;;4959081;28;20027;-84
2022/02/23 13:00:31;;;;;;;3.15;0.60;;;;;;;;;;4958870;28;20507;-78
2022/02/23 13:03:06;;;;;;;5.05;0.95;;;;;;;;;;4974971;28;20054;-77
2022/02/23 13:05:36;;;;;;;5.18;1.20;;;;;;;;;;4997901;28;20068;-82
2022/02/23 13:08:04;;;;;;;5.20;0.93;;;;;;;;;;4997757;28;20064;-84
2022/02/23 13:10:30;;;;;;;3.30;0.70;;;;;;;;;;4997600;28;20072;-79
2022/02/23 13:12:56;;;;;;;3.67;0.90;;;;;;;;;;4997918;28;20133;-86
2022/02/23 13:15:23;;;;;;;6.03;1.08;;;;;;;;;;4998126;28;20018;-88
2022/02/23 13:17:49;;;;;;;3.53;0.70;;;;;;;;;;5019162;28;20025;-88
2022/02/23 13:20:16;;;;;;;2.28;0.60;;;;;;;;;;5005245;28;20106;-88
2022/02/23 13:22:43;;;;;;;4.65;0.70;;;;;;;;;;5000878;28;20029;-78
2022/02/23 13:25:11;;;;;;;3.42;0.63;;;;;;;;;;4997554;28;20103;-87
2022/02/23 13:27:37;;;;;;;4.88;0.80;;;;;;;;;;5016044;28;20021;-80
2022/02/23 13:30:05;;;;;;;4.72;0.90;;;;;;;;;;4998021;28;20393;-79
2022/02/23 13:32:37;;;;;;;6.68;1.13;;;;;;;;;;4999237;28;20045;-77
2022/02/23 13:35:11;;;;;;;6.65;0.80;;;;;;;;;;5003231;28;20037;-77
2022/02/23 13:37:41;;;;;;;2.60;0.70;;;;;;;;;;5014209;28;20054;-79
2022/02/23 13:40:12;;;;;;;4.72;1.15;;;;;;;;;;4997063;28;20026;-76
2022/02/23 13:42:39;;;;;;;2.58;0.68;;;;;;;;;;4996990;28;20056;-77
2022/02/23 13:45:15;;;;;;;1.98;0.70;;;;;;;;;;5014093;28;20026;-77
2022/02/23 13:47:46;;;;;;;2.95;0.70;;;;;;;;;;4996314;28;20034;-77
2022/02/23 13:50:16;;;;;;;3.80;0.68;;;;;;;;;;5013947;28;20026;-79
2022/02/23 13:52:44;;;;;;;6.75;0.88;;;;;;;;;;4996235;28;20125;-76
2022/02/23 13:55:12;;;;;;;2.65;0.60;;;;;;;;;;4996472;28;20080;-77
2022/02/23 13:57:43;;;;;;;4.00;0.77;;;;;;;;;;5013180;28;20029;-80
2022/02/23 14:00:09;;;;;;;3.85;0.68;;;;;;;;;;5002141;28;20544;-80
2022/02/23 14:02:35;;;;;;;3.90;1.15;;;;;;;;;;4977298;28;20141;-82
2022/02/23 14:05:11;;;;;;;2.53;0.80;;;;;;;;;;4977979;28;20030;-86
2022/02/23 14:07:37;;;;;;;4.28;0.80;;;;;;;;;;4977985;28;20062;-86
2022/02/23 14:10:06;;;;;;;5.75;1.13;;;;;;;;;;4995289;28;20466;-87
2022/02/23 14:12:32;;;;;;;4.80;0.70;;;;;;;;;;4977587;28;20089;-86
2022/02/23 14:15:00;;;;;;;5.25;0.85;;;;;;;;;;4995038;28;20027;-85
2022/02/23 14:17:28;;;;;;;5.93;0.85;;;;;;;;;;4994822;28;20023;-83
2022/02/23 14:19:54;;;;;;;4.28;1.13;;;;;;;;;;4978366;28;20141;-82
2022/02/23 14:22:27;;;;;;;2.70;0.90;;;;;;;;;;4978299;28;20115;-84
2022/02/23 14:25:01;;;;;;;5.15;1.05;;;;;;;;;;4994809;28;20022;-85
2022/02/23 14:27:28;;;;;;;2.03;0.50;;;;;;;;;;4995112;28;20101;-86
2022/02/23 14:29:54;;;;;;;2.97;0.55;;;;;;;;;;4994950;28;20037;-84
2022/02/23 14:32:25;;;;;;;3.40;0.50;;;;;;;;;;4977337;28;20032;-85
2022/02/23 14:34:59;;;;;;;2.80;0.68;;;;;;;;;;4977798;28;20124;-86
2022/02/23 14:37:28;;;;;;;2.15;0.55;;;;;;;;;;4977458;28;20019;-85
2022/02/23 14:39:55;;;;;;;4.65;0.63;;;;;;;;;;4977515;28;20022;-85
2022/02/23 14:42:22;;;;;;;4.45;0.77;;;;;;;;;;4977075;28;20105;-85
2022/02/23 14:44:48;;;;;;;3.50;0.65;;;;;;;;;;4978453;28;20077;-83
2022/02/23 14:47:14;;;;;;;1.90;0.85;;;;;;;;;;4995138;28;20103;-85
2022/02/23 14:49:41;;;;;;;6.28;1.00;;;;;;;;;;4977377;28;20497;-83
2022/02/23 14:52:07;;;;;;;4.28;0.50;;;;;;;;;;4977510;28;20471;-86
2022/02/23 14:54:33;;;;;;;5.80;0.85;;;;;;;;;;4995332;28;20053;-86